createdAt,value
2023-03-26T00:01:08.064Z,66.19
2023-03-26T00:03:35.877Z,66.55
2023-03-26T00:06:10.788Z,67.99
2023-03-26T00:08:38.600Z,68.10
2023-03-26T00:11:06.887Z,68.05
2023-03-26T00:13:33.907Z,68.29
2023-03-26T00:16:01.530Z,68.78
2023-03-26T00:18:31.738Z,68.55
2023-03-26T00:20:59.746Z,68.46
2023-03-26T00:23:27.233Z,68.65
2023-03-26T00:25:54.939Z,68.65
2023-03-26T00:28:26.733Z,68.56
2023-03-26T00:31:02.211Z,68.34
2023-03-26T00:33:29.096Z,67.72
2023-03-26T00:35:59.210Z,68.19
2023-03-26T00:38:27.996Z,68.54
2023-03-26T00:40:55.070Z,68.56
2023-03-26T00:43:22.688Z,68.11
2023-03-26T00:45:51.472Z,68.19
2023-03-26T00:48:18.520Z,68.28
2023-03-26T00:50:46.429Z,67.89
2023-03-26T00:53:14.154Z,67.92
2023-03-26T00:55:45.587Z,67.97
2023-03-26T00:58:13.619Z,67.09
2023-03-26T01:00:51.244Z,67.35
2023-03-26T01:03:27.981Z,67.01
2023-03-26T01:06:08.315Z,66.51
2023-03-26T01:08:42.418Z,66.13
2023-03-26T01:11:24.351Z,66.50
2023-03-26T01:14:12.492Z,66.14
2023-03-26T01:16:52.496Z,66.41
2023-03-26T01:19:29.556Z,67.17
2023-03-26T01:21:57.907Z,67.01
2023-03-26T01:24:24.800Z,67.12
2023-03-26T01:27:06.128Z,67.18
2023-03-26T01:29:54.415Z,66.75
2023-03-26T01:32:50.669Z,66.10
2023-03-26T01:35:42.336Z,65.75
2023-03-26T01:38:28.181Z,66.35
2023-03-26T01:41:05.001Z,65.39
2023-03-26T01:43:49.225Z,66.15
2023-03-26T01:46:16.575Z,65.50
2023-03-26T01:48:44.825Z,65.55
2023-03-26T01:51:12.584Z,65.89
2023-03-26T01:53:43.895Z,66.05
2023-03-26T01:56:29.876Z,65.89
2023-03-26T01:58:56.791Z,65.74
2023-03-26T02:01:31.416Z,66.07
2023-03-26T02:04:11.936Z,66.05
2023-03-26T02:06:46.974Z,66.65
2023-03-26T02:09:20.490Z,66.62
2023-03-26T02:11:47.713Z,66.26
2023-03-26T02:14:14.543Z,66.54
2023-03-26T02:16:41.454Z,66.81
2023-03-26T02:19:15.968Z,66.65
2023-03-26T02:21:43.044Z,66.87
2023-03-26T02:24:09.946Z,66.75
2023-03-26T02:26:37.921Z,67.48
2023-03-26T02:29:04.864Z,67.09
2023-03-26T02:31:31.778Z,66.67
2023-03-26T02:33:58.814Z,67.59
2023-03-26T02:36:28.511Z,67.36
2023-03-26T02:38:55.945Z,67.61
2023-03-26T02:41:22.804Z,68.59
2023-03-26T02:43:49.744Z,67.61
2023-03-26T02:46:16.799Z,67.07
2023-03-26T02:48:44.352Z,66.85
2023-03-26T02:51:11.188Z,66.55
2023-03-26T02:53:39.831Z,67.20
2023-03-26T02:56:07.159Z,66.56
2023-03-26T02:58:34.133Z,66.67
2023-03-26T03:01:03.304Z,66.13
2023-03-26T03:03:30.709Z,65.61
2023-03-26T03:05:57.886Z,65.56
2023-03-26T03:08:26.813Z,65.62
2023-03-26T03:11:01.049Z,65.34
2023-03-26T03:13:28.263Z,65.12
2023-03-26T03:15:55.378Z,65.01
2023-03-26T03:18:22.500Z,64.33
2023-03-26T03:20:50.098Z,64.61
2023-03-26T03:23:17.332Z,63.80
2023-03-26T03:25:44.179Z,63.75
2023-03-26T03:28:11.413Z,64.00
2023-03-26T03:30:38.329Z,63.80
2023-03-26T03:33:06.455Z,64.31
2023-03-26T03:35:33.818Z,63.85
2023-03-26T03:38:01.081Z,64.19
2023-03-26T03:40:27.994Z,63.87
2023-03-26T03:42:55.125Z,64.41
2023-03-26T03:45:22.098Z,64.52
2023-03-26T03:47:49.167Z,64.57
2023-03-26T03:50:16.057Z,63.91
2023-03-26T03:52:42.954Z,63.77
2023-03-26T03:55:10.919Z,63.33
2023-03-26T03:57:38.547Z,63.94
2023-03-26T04:00:09.143Z,63.74
2023-03-26T04:02:36.238Z,64.32
2023-03-26T04:05:04.424Z,64.17
2023-03-26T04:07:32.612Z,64.21
2023-03-26T04:10:00.320Z,63.11
2023-03-26T04:12:30.386Z,63.82
2023-03-26T04:14:57.895Z,64.32
2023-03-26T04:17:24.967Z,64.91
2023-03-26T04:19:53.214Z,65.50
2023-03-26T04:22:20.205Z,64.89
2023-03-26T04:24:48.997Z,64.32
2023-03-26T04:27:19.262Z,64.29
2023-03-26T04:29:47.906Z,63.53
2023-03-26T04:32:26.659Z,63.61
2023-03-26T04:34:54.005Z,63.51
2023-03-26T04:37:34.674Z,63.46
2023-03-26T04:40:06.717Z,62.70
2023-03-26T04:42:33.610Z,63.21
2023-03-26T04:45:03.538Z,63.93
2023-03-26T04:47:30.519Z,63.87
2023-03-26T04:49:57.528Z,63.46
2023-03-26T04:52:24.371Z,62.83
2023-03-26T04:54:51.625Z,62.65
2023-03-26T04:57:33.922Z,62.05
2023-03-26T05:00:01.032Z,62.62
2023-03-26T05:02:27.954Z,63.29
2023-03-26T05:04:57.352Z,63.93
2023-03-26T05:07:24.325Z,64.21
2023-03-26T05:09:51.413Z,64.93
2023-03-26T05:12:18.359Z,65.91
2023-03-26T05:14:45.358Z,65.91
2023-03-26T05:17:15.183Z,65.84
2023-03-26T05:19:42.142Z,65.78
2023-03-26T05:22:08.971Z,65.25
2023-03-26T05:24:35.862Z,65.33
2023-03-26T05:27:02.764Z,65.08
2023-03-26T05:29:29.797Z,64.52
2023-03-26T05:31:56.590Z,64.78
2023-03-26T05:34:26.926Z,65.01
2023-03-26T05:36:53.933Z,64.97
2023-03-26T05:39:25.861Z,65.92
2023-03-26T05:41:53.355Z,67.20
2023-03-26T05:44:20.588Z,66.57
2023-03-26T05:46:47.598Z,67.02
2023-03-26T05:49:15.833Z,66.33
2023-03-26T05:51:42.760Z,66.60
2023-03-26T05:54:09.724Z,67.03
2023-03-26T05:56:37.038Z,66.98
2023-03-26T05:59:03.953Z,70.76
2023-03-26T06:01:30.839Z,68.22
2023-03-26T06:03:57.728Z,67.77
2023-03-26T06:06:24.686Z,66.72
2023-03-26T06:09:01.143Z,67.45
2023-03-26T06:11:29.865Z,66.36
2023-03-26T06:13:57.053Z,66.55
2023-03-26T06:16:27.312Z,67.18
2023-03-26T06:18:56.314Z,68.21
2023-03-26T06:21:23.922Z,69.39
2023-03-26T06:23:51.963Z,70.44
2023-03-26T06:26:18.923Z,70.60
2023-03-26T06:28:45.836Z,70.92
2023-03-26T06:31:12.716Z,70.92
2023-03-26T06:33:39.945Z,70.05
2023-03-26T06:36:07.349Z,69.89
2023-03-26T06:38:34.238Z,70.33
2023-03-26T06:41:05.794Z,70.19
2023-03-26T06:43:36.484Z,71.31
2023-03-26T06:46:03.605Z,71.73
2023-03-26T06:48:30.897Z,71.52
2023-03-26T06:50:58.296Z,71.37
2023-03-26T06:53:25.423Z,72.30
2023-03-26T06:55:54.489Z,72.14
2023-03-26T06:58:21.681Z,71.56
2023-03-26T07:00:48.838Z,71.34
2023-03-26T07:03:17.398Z,71.15
2023-03-26T07:05:44.328Z,69.73
2023-03-26T07:08:11.264Z,69.39
2023-03-26T07:10:38.107Z,70.06
2023-03-26T07:13:05.012Z,69.41
2023-03-26T07:15:31.889Z,69.51
2023-03-26T07:17:58.793Z,69.28
2023-03-26T07:20:25.915Z,69.07
2023-03-26T07:22:53.133Z,68.75
2023-03-26T07:25:20.671Z,68.40
2023-03-26T07:27:53.903Z,68.63
2023-03-26T07:30:26.032Z,67.85
2023-03-26T07:32:53.659Z,68.19
2023-03-26T07:35:30.861Z,68.48
2023-03-26T07:38:22.185Z,69.01
2023-03-26T07:41:23.062Z,69.83
2023-03-26T07:44:01.922Z,69.41
2023-03-26T07:46:32.189Z,69.98
2023-03-26T07:49:00.281Z,70.36
2023-03-26T07:51:27.853Z,69.50
2023-03-26T07:53:55.236Z,69.30
2023-03-26T07:56:31.124Z,69.44
2023-03-26T07:59:34.524Z,69.03
2023-03-26T08:02:29.860Z,68.32
2023-03-26T08:05:00.126Z,67.94
2023-03-26T08:07:39.727Z,66.20
2023-03-26T08:10:14.734Z,66.23
2023-03-26T08:12:54.316Z,65.51
2023-03-26T08:15:54.026Z,64.24
2023-03-26T08:18:35.811Z,62.98
2023-03-26T08:21:14.309Z,60.71
2023-03-26T08:24:25.904Z,61.08
2023-03-26T08:26:59.868Z,60.20
2023-03-26T08:29:50.209Z,59.73
2023-03-26T08:32:18.573Z,55.31
2023-03-26T08:34:46.450Z,55.85
2023-03-26T08:37:13.663Z,55.96
2023-03-26T08:39:42.358Z,53.51
2023-03-26T08:42:21.249Z,53.73
2023-03-26T08:44:49.146Z,51.53
2023-03-26T08:47:52.474Z,51.62
2023-03-26T08:50:45.497Z,49.60
2023-03-26T08:53:21.253Z,48.47
2023-03-26T08:55:57.520Z,48.45
2023-03-26T08:58:45.544Z,47.18
2023-03-26T09:01:43.644Z,46.36
2023-03-26T09:04:47.341Z,44.71
2023-03-26T09:07:38.817Z,45.03
2023-03-26T09:10:23.821Z,43.86
2023-03-26T09:12:50.867Z,43.00
2023-03-26T09:15:54.904Z,42.79
2023-03-26T09:18:46.541Z,42.90
2023-03-26T09:21:48.882Z,42.74
2023-03-26T09:24:30.621Z,42.59
2023-03-26T09:27:31.429Z,43.19
2023-03-26T09:30:34.704Z,43.31
2023-03-26T09:33:15.315Z,43.08
2023-03-26T09:35:54.194Z,42.82
2023-03-26T09:38:42.692Z,41.73
2023-03-26T09:41:29.804Z,41.32
2023-03-26T09:44:08.854Z,40.43
2023-03-26T09:46:54.351Z,40.19
2023-03-26T09:49:42.445Z,41.45
2023-03-26T09:52:27.410Z,40.57
2023-03-26T09:55:08.444Z,41.01
2023-03-26T09:57:41.265Z,40.62
2023-03-26T10:00:23.323Z,41.12
2023-03-26T10:03:23.846Z,41.30
2023-03-26T10:06:04.116Z,42.91
2023-03-26T10:09:08.481Z,42.91
2023-03-26T10:12:22.749Z,42.63
2023-03-26T10:14:57.293Z,42.62
2023-03-26T10:17:57.602Z,42.98
2023-03-26T10:20:58.611Z,43.07
2023-03-26T10:23:43.833Z,42.60
2023-03-26T10:26:32.221Z,42.58
2023-03-26T10:29:23.211Z,40.86
2023-03-26T10:32:00.196Z,40.03
2023-03-26T10:35:04.422Z,40.27
2023-03-26T10:38:01.955Z,40.06
2023-03-26T10:41:00.286Z,40.27
2023-03-26T10:44:05.183Z,37.95
2023-03-26T10:47:01.246Z,39.30
2023-03-26T10:49:50.047Z,38.22
2023-03-26T10:52:33.590Z,37.03
2023-03-26T10:55:03.639Z,37.64
2023-03-26T10:57:56.260Z,36.91
2023-03-26T11:00:29.204Z,37.74
2023-03-26T11:03:31.510Z,37.29
2023-03-26T11:06:07.458Z,39.24
2023-03-26T11:08:50.325Z,38.90
2023-03-26T11:11:22.268Z,38.65
2023-03-26T11:14:04.257Z,38.42
2023-03-26T11:16:34.020Z,35.87
2023-03-26T11:19:26.335Z,38.51
2023-03-26T11:22:05.395Z,37.65
2023-03-26T11:24:47.439Z,39.32
2023-03-26T11:27:44.009Z,42.41
2023-03-26T11:30:20.942Z,45.76
2023-03-26T11:32:54.530Z,45.10
2023-03-26T11:35:39.402Z,44.93
2023-03-26T11:38:19.651Z,45.74
2023-03-26T11:40:51.838Z,45.33
2023-03-26T11:43:21.529Z,44.42
2023-03-26T11:45:48.605Z,44.68
2023-03-26T11:48:32.330Z,45.13
2023-03-26T11:51:08.134Z,44.14
2023-03-26T11:53:38.968Z,42.80
2023-03-26T11:56:34.640Z,45.40
2023-03-26T11:59:21.242Z,43.41
2023-03-26T12:01:56.199Z,44.79
2023-03-26T12:04:35.550Z,43.41
2023-03-26T12:07:18.926Z,43.03
2023-03-26T12:10:17.967Z,41.99
2023-03-26T12:12:46.682Z,39.97
2023-03-26T12:15:19.322Z,40.62
2023-03-26T12:17:53.685Z,40.80
2023-03-26T12:20:26.620Z,39.66
2023-03-26T12:23:00.668Z,40.02
2023-03-26T12:25:28.926Z,39.09
2023-03-26T12:28:06.211Z,40.89
2023-03-26T12:30:38.091Z,40.25
2023-03-26T12:33:26.242Z,39.88
2023-03-26T12:35:53.923Z,38.63
2023-03-26T12:38:24.908Z,39.90
2023-03-26T12:44:42.959Z,39.43
2023-03-26T12:44:46.701Z,41.33
2023-03-26T12:47:57.562Z,42.57
2023-03-26T12:50:15.737Z,40.63
2023-03-26T12:52:52.919Z,42.10
2023-03-26T12:55:44.248Z,39.26
2023-03-26T12:58:23.332Z,38.87
2023-03-26T13:00:50.046Z,39.76
2023-03-26T13:03:19.914Z,39.53
2023-03-26T13:06:07.100Z,39.78
2023-03-26T13:08:48.912Z,39.68
2023-03-26T13:11:45.991Z,39.92
2023-03-26T13:14:12.751Z,40.42
2023-03-26T13:16:55.852Z,39.80
2023-03-26T13:19:39.440Z,41.91
2023-03-26T13:22:12.811Z,42.06
2023-03-26T13:25:01.288Z,43.12
2023-03-26T13:27:42.859Z,44.35
2023-03-26T13:30:31.657Z,47.40
2023-03-26T13:33:04.665Z,53.30
2023-03-26T13:36:22.468Z,55.06
2023-03-26T13:39:02.716Z,55.27
2023-03-26T13:41:29.535Z,58.21
2023-03-26T13:44:29.636Z,61.11
2023-03-26T13:47:00.907Z,62.14
2023-03-26T13:49:45.887Z,62.14
2023-03-26T13:52:38.874Z,58.76
2023-03-26T13:55:29.727Z,61.55
2023-03-26T13:58:17.458Z,58.83
2023-03-26T14:00:56.068Z,58.74
2023-03-26T14:03:45.806Z,59.32
2023-03-26T14:06:28.113Z,59.46
2023-03-26T14:09:03.082Z,59.38
2023-03-26T14:11:42.988Z,58.69
2023-03-26T14:14:16.948Z,59.38
2023-03-26T14:16:49.865Z,57.21
2023-03-26T14:19:38.070Z,57.83
2023-03-26T14:22:19.454Z,54.83
2023-03-26T14:25:27.234Z,56.31
2023-03-26T14:28:18.966Z,53.30
2023-03-26T14:30:54.952Z,53.63
2023-03-26T14:33:46.078Z,53.06
2023-03-26T14:36:26.157Z,51.95
2023-03-26T14:39:12.670Z,49.81
2023-03-26T14:41:52.174Z,50.20
2023-03-26T14:44:47.997Z,49.95
2023-03-26T14:47:17.779Z,47.33
2023-03-26T14:50:14.130Z,47.93
2023-03-26T14:52:52.022Z,46.83
2023-03-26T14:55:33.963Z,45.40
2023-03-26T14:58:04.276Z,47.23
2023-03-26T15:00:52.350Z,46.99
2023-03-26T15:03:56.707Z,45.20
2023-03-26T15:06:40.093Z,45.38
2023-03-26T15:09:25.645Z,44.26
2023-03-26T15:12:12.453Z,46.71
2023-03-26T15:14:49.288Z,45.62
2023-03-26T15:17:41.043Z,43.80
2023-03-26T15:20:20.077Z,44.76
2023-03-26T15:23:08.368Z,45.09
2023-03-26T15:25:57.001Z,44.39
2023-03-26T15:28:48.561Z,44.29
2023-03-26T15:31:31.902Z,43.91
2023-03-26T15:34:20.250Z,44.03
2023-03-26T15:37:12.391Z,44.47
2023-03-26T15:40:09.941Z,45.58
2023-03-26T15:42:48.710Z,43.90
2023-03-26T15:45:31.406Z,42.62
2023-03-26T15:48:14.223Z,43.90
2023-03-26T15:50:54.907Z,43.93
2023-03-26T15:53:48.277Z,42.26
2023-03-26T15:56:53.241Z,41.15
2023-03-26T15:59:48.037Z,40.75
2023-03-26T16:02:45.355Z,42.78
2023-03-26T16:05:31.769Z,42.17
2023-03-26T16:08:15.252Z,41.69
2023-03-26T16:11:00.595Z,41.60
2023-03-26T16:13:33.055Z,40.42
2023-03-26T16:16:02.939Z,41.80
2023-03-26T16:18:30.130Z,41.11
2023-03-26T16:21:31.402Z,41.52
2023-03-26T16:24:02.786Z,43.05
2023-03-26T16:26:45.665Z,41.60
2023-03-26T16:29:15.905Z,42.37
2023-03-26T16:32:07.642Z,43.20
2023-03-26T16:34:42.182Z,43.26
2023-03-26T16:37:50.329Z,42.79
2023-03-26T16:40:23.806Z,45.47
2023-03-26T16:43:10.411Z,47.35
2023-03-26T16:45:43.058Z,50.25
2023-03-26T16:48:14.885Z,54.55
2023-03-26T16:50:53.429Z,55.46
2023-03-26T16:53:29.779Z,59.08
2023-03-26T16:56:03.971Z,57.78
2023-03-26T16:58:45.255Z,57.81
2023-03-26T17:01:32.769Z,60.02
2023-03-26T17:04:02.681Z,60.44
2023-03-26T17:07:16.103Z,61.13
2023-03-26T17:10:03.945Z,61.07
2023-03-26T17:12:44.533Z,62.04
2023-03-26T17:15:30.325Z,60.92
2023-03-26T17:18:17.522Z,61.46
2023-03-26T17:21:13.779Z,61.51
2023-03-26T17:23:43.394Z,61.61
2023-03-26T17:26:16.202Z,60.98
2023-03-26T17:28:50.533Z,61.36
2023-03-26T17:31:46.363Z,61.46
2023-03-26T17:34:37.961Z,61.29
2023-03-26T17:37:26.879Z,62.14
2023-03-26T17:40:37.317Z,63.47
2023-03-26T17:43:11.513Z,63.48
2023-03-26T17:45:40.507Z,64.65
2023-03-26T17:48:13.208Z,65.44
2023-03-26T17:50:55.620Z,64.44
2023-03-26T17:53:27.844Z,64.18
2023-03-26T17:55:55.713Z,65.28
2023-03-26T17:58:23.946Z,64.79
2023-03-26T18:00:52.931Z,64.07
2023-03-26T18:03:20.829Z,65.56
2023-03-26T18:05:49.584Z,66.39
2023-03-26T18:08:31.575Z,66.78
2023-03-26T18:11:20.491Z,67.52
2023-03-26T18:13:59.120Z,66.43
2023-03-26T18:16:37.767Z,66.29
2023-03-26T18:19:17.953Z,66.11
2023-03-26T18:21:53.209Z,64.81
2023-03-26T18:24:26.955Z,65.24
2023-03-26T18:27:03.626Z,65.81
2023-03-26T18:29:31.634Z,66.34
2023-03-26T18:32:03.682Z,67.37
2023-03-26T18:34:32.853Z,67.51
2023-03-26T18:37:11.422Z,68.38
2023-03-26T18:39:38.922Z,67.18
2023-03-26T18:42:06.259Z,67.73
2023-03-26T18:44:39.145Z,67.57
2023-03-26T18:47:07.287Z,67.13
2023-03-26T18:49:34.116Z,67.19
2023-03-26T18:52:01.041Z,67.08
2023-03-26T18:54:31.081Z,66.57
2023-03-26T18:56:58.982Z,66.58
2023-03-26T18:59:32.891Z,66.42
2023-03-26T19:02:00.159Z,66.41
2023-03-26T19:04:27.111Z,66.68
2023-03-26T19:06:55.216Z,66.34
2023-03-26T19:09:31.735Z,67.33
2023-03-26T19:12:16.739Z,67.83
2023-03-26T19:14:56.643Z,68.02
2023-03-26T19:17:28.406Z,68.31
2023-03-26T19:19:55.913Z,67.73
2023-03-26T19:22:24.649Z,65.83
2023-03-26T19:24:53.779Z,64.87
2023-03-26T19:27:20.741Z,65.53
2023-03-26T19:29:47.626Z,65.74
2023-03-26T19:32:19.899Z,65.98
2023-03-26T19:34:47.306Z,65.37
2023-03-26T19:37:20.042Z,64.77
2023-03-26T19:39:50.514Z,65.42
2023-03-26T19:42:43.400Z,65.53
2023-03-26T19:45:22.122Z,65.50
2023-03-26T19:47:57.370Z,66.00
2023-03-26T19:50:31.344Z,65.91
2023-03-26T19:53:24.607Z,66.15
2023-03-26T19:56:11.994Z,66.12
2023-03-26T19:58:42.942Z,66.16
2023-03-26T20:01:23.887Z,66.63
2023-03-26T20:03:52.972Z,66.50
2023-03-26T20:06:30.724Z,66.20
2023-03-26T20:09:02.134Z,67.34
2023-03-26T20:11:34.475Z,66.42
2023-03-26T20:14:02.076Z,66.08
2023-03-26T20:16:33.860Z,66.87
2023-03-26T20:19:04.929Z,67.14
2023-03-26T20:21:35.263Z,67.98
2023-03-26T20:24:02.115Z,67.35
2023-03-26T20:26:28.982Z,67.67
2023-03-26T20:28:56.540Z,67.69
2023-03-26T20:31:25.347Z,69.78
2023-03-26T20:33:53.356Z,68.68
2023-03-26T20:36:33.778Z,68.85
2023-03-26T20:39:08.527Z,68.11
2023-03-26T20:41:36.206Z,68.26
2023-03-26T20:44:05.090Z,68.53
2023-03-26T20:46:33.564Z,68.21
2023-03-26T20:49:00.497Z,68.80
2023-03-26T20:51:28.957Z,67.35
2023-03-26T20:53:56.529Z,67.84
2023-03-26T20:56:23.626Z,72.62
2023-03-26T20:59:03.525Z,73.16
2023-03-26T21:01:38.439Z,69.84
2023-03-26T21:04:06.588Z,69.36
2023-03-26T21:06:33.586Z,68.35
2023-03-26T21:09:01.292Z,66.02
2023-03-26T21:11:51.005Z,67.91
2023-03-26T21:14:44.410Z,68.29
2023-03-26T21:17:16.744Z,69.81
2023-03-26T21:19:44.144Z,70.18
2023-03-26T21:22:13.877Z,70.65
2023-03-26T21:24:53.115Z,70.37
2023-03-26T21:27:53.834Z,71.52
2023-03-26T21:30:24.351Z,71.03
2023-03-26T21:32:51.546Z,71.94
2023-03-26T21:35:19.468Z,71.91
2023-03-26T21:37:49.116Z,71.35
2023-03-26T21:40:18.709Z,71.71
2023-03-26T21:42:46.469Z,70.64
2023-03-26T21:45:13.783Z,70.97
2023-03-26T21:47:41.311Z,70.40
2023-03-26T21:50:09.886Z,70.44
2023-03-26T21:52:37.454Z,70.06
2023-03-26T21:55:06.798Z,69.37
2023-03-26T21:57:47.629Z,69.52
2023-03-26T22:00:18.373Z,70.10
2023-03-26T22:03:09.605Z,70.98
2023-03-26T22:05:36.801Z,70.98
2023-03-26T22:08:05.427Z,70.90
2023-03-26T22:10:32.888Z,69.82
2023-03-26T22:12:59.937Z,68.24
2023-03-26T22:15:31.062Z,70.33
2023-03-26T22:18:02.469Z,70.06
2023-03-26T22:20:29.558Z,69.43
2023-03-26T22:22:56.519Z,69.26
2023-03-26T22:25:23.622Z,70.38
2023-03-26T22:27:50.947Z,70.67
2023-03-26T22:30:18.130Z,71.12
2023-03-26T22:32:45.907Z,71.21
2023-03-26T22:35:13.192Z,71.48
2023-03-26T22:37:40.576Z,71.62
2023-03-26T22:40:13.818Z,71.87
2023-03-26T22:42:41.470Z,72.55
2023-03-26T22:45:09.525Z,72.16
2023-03-26T22:47:36.881Z,71.77
2023-03-26T22:50:04.544Z,71.75
2023-03-26T22:52:31.750Z,71.33
2023-03-26T22:54:58.600Z,70.68
2023-03-26T22:57:25.499Z,70.10
2023-03-26T22:59:53.125Z,70.10
2023-03-26T23:02:20.755Z,69.58
2023-03-26T23:04:48.951Z,69.53
2023-03-26T23:07:15.996Z,69.48
2023-03-26T23:09:42.829Z,69.22
2023-03-26T23:12:09.920Z,68.70
2023-03-26T23:14:36.885Z,68.44
2023-03-26T23:17:03.813Z,68.96
2023-03-26T23:19:34.336Z,69.44
2023-03-26T23:22:01.508Z,69.41
2023-03-26T23:24:30.448Z,70.52
2023-03-26T23:26:57.357Z,69.57
2023-03-26T23:29:25.270Z,70.18
2023-03-26T23:31:53.279Z,70.20
2023-03-26T23:34:21.215Z,68.73
2023-03-26T23:36:48.292Z,69.27
2023-03-26T23:39:16.120Z,67.38
2023-03-26T23:41:43.842Z,67.33
2023-03-26T23:44:13.732Z,67.53
2023-03-26T23:46:42.032Z,67.11
2023-03-26T23:49:10.384Z,67.72
2023-03-26T23:51:37.360Z,67.88
2023-03-26T23:54:05.282Z,67.15
2023-03-26T23:56:32.460Z,68.88
2023-03-26T23:59:00.904Z,68.54
